Time;durP1;ratioP1;P1;durP2;ratioP2;P2;SDS_P1;SDS_P2;PMS_P1;PMS_P2;Temp;Humidity;BMP_temperature;BMP_pressure;BME280_temperature;BME280_humidity;BME280_pressure;Samples;Min_cycle;Max_cycle;Signal;HPM_P1;HPM_P2
2023/06/14 00:01:53;;;;;;;;;;;;;;;17.72;50.43;101340.59;4189163;28;20027;-64
2023/06/14 00:03:55;;;;;;;;;;;;;;;17.67;50.95;101346.69;4187545;28;20020;-65
2023/06/14 00:05:57;;;;;;;;;;;;;;;17.71;50.62;101347.09;4188980;28;20012;-65
2023/06/14 00:08:01;;;;;;;;;;;;;;;17.75;50.52;101351.94;4167946;28;20351;-65
2023/06/14 00:10:04;;;;;;;;;;;;;;;17.75;50.53;101348.38;4188765;28;20016;-64
2023/06/14 00:12:08;;;;;;;;;;;;;;;17.70;50.90;101353.63;4187594;28;20497;-65
2023/06/14 00:14:10;;;;;;;;;;;;;;;17.69;51.01;101350.03;4188527;28;20553;-63
2023/06/14 00:16:12;;;;;;;;;;;;;;;17.65;51.15;101352.34;4187987;28;20399;-63
2023/06/14 00:18:14;;;;;;;;;;;;;;;17.59;51.22;101352.34;4188585;28;20442;-63
2023/06/14 00:20:17;;;;;;;;;;;;;;;17.48;51.58;101353.81;4188544;28;20035;-64
2023/06/14 00:22:19;;;;;;;;;;;;;;;17.37;51.77;101352.53;4188901;28;20354;-65
2023/06/14 00:24:23;;;;;;;;;;;;;;;17.31;52.24;101352.53;4188947;28;20556;-65
2023/06/14 00:26:26;;;;;;;;;;;;;;;17.27;52.14;101343.88;4188454;28;20047;-64
2023/06/14 00:28:28;;;;;;;;;;;;;;;17.27;52.26;101355.66;4203966;28;20425;-64
2023/06/14 00:30:30;;;;;;;;;;;;;;;17.33;52.42;101350.41;4188592;28;20359;-64
2023/06/14 00:32:32;;;;;;;;;;;;;;;17.34;52.21;101350.22;4186735;28;20015;-64
2023/06/14 00:34:35;;;;;;;;;;;;;;;17.34;52.34;101355.69;4187680;28;20014;-64
2023/06/14 00:36:37;;;;;;;;;;;;;;;17.30;52.31;101346.22;4171891;28;20066;-64
2023/06/14 00:38:40;;;;;;;;;;;;;;;17.34;52.65;101354.84;4204375;28;20003;-63
2023/06/14 00:40:45;;;;;;;;;;;;;;;17.35;52.92;101351.91;4219605;28;20371;-63
2023/06/14 00:42:52;;;;;;;;;;;;;;;17.40;52.70;101351.28;4169671;28;20064;-61
2023/06/14 00:44:54;;;;;;;;;;;;;;;17.41;52.92;101352.94;4187279;28;20362;-63
2023/06/14 00:46:56;;;;;;;;;;;;;;;17.37;53.08;101358.00;4186667;28;20416;-64
2023/06/14 00:48:59;;;;;;;;;;;;;;;17.31;53.35;101347.91;4186855;28;20031;-64
2023/06/14 00:51:03;;;;;;;;;;;;;;;17.31;53.49;101358.81;4187851;28;20042;-64
2023/06/14 00:53:06;;;;;;;;;;;;;;;17.35;53.74;101351.91;4187743;28;20027;-63
2023/06/14 00:55:08;;;;;;;;;;;;;;;17.39;53.69;101347.69;4186393;28;20031;-63
2023/06/14 00:57:12;;;;;;;;;;;;;;;17.38;53.65;101351.50;4186553;28;20450;-63
2023/06/14 00:59:15;;;;;;;;;;;;;;;17.29;53.95;101358.19;4185776;28;20024;-63
2023/06/14 01:01:17;;;;;;;;;;;;;;;17.33;53.89;101347.69;4188832;28;20347;-64
2023/06/14 01:03:21;;;;;;;;;;;;;;;17.34;53.66;101346.66;4187389;28;20023;-65
2023/06/14 01:05:23;;;;;;;;;;;;;;;17.35;53.74;101349.19;4187389;28;20016;-64
2023/06/14 01:07:29;;;;;;;;;;;;;;;17.32;54.49;101349.59;4187126;28;20036;-64
2023/06/14 01:09:33;;;;;;;;;;;;;;;17.30;54.05;101343.47;4187582;28;20007;-65
2023/06/14 01:11:38;;;;;;;;;;;;;;;17.24;54.32;101349.75;4220269;28;20018;-64
2023/06/14 01:13:45;;;;;;;;;;;;;;;17.17;54.57;101354.38;4187124;28;20024;-65
2023/06/14 01:15:47;;;;;;;;;;;;;;;17.11;55.03;101350.56;4220381;28;20014;-64
2023/06/14 01:17:51;;;;;;;;;;;;;;;17.10;55.37;101357.09;4187599;28;20024;-64
2023/06/14 01:19:57;;;;;;;;;;;;;;;17.08;55.31;101353.72;4187124;28;20011;-65
2023/06/14 01:22:00;;;;;;;;;;;;;;;17.08;55.39;101354.56;4220180;28;20022;-64
2023/06/14 01:24:03;;;;;;;;;;;;;;;17.08;55.44;101350.97;4187343;28;20019;-65
2023/06/14 01:26:05;;;;;;;;;;;;;;;17.03;55.41;101345.31;4188034;28;20470;-64
2023/06/14 01:28:10;;;;;;;;;;;;;;;16.97;55.52;101346.97;4188249;28;20028;-64
2023/06/14 01:30:12;;;;;;;;;;;;;;;16.90;55.92;101344.22;4187404;28;20003;-64
2023/06/14 01:32:15;;;;;;;;;;;;;;;16.88;56.01;101343.59;4219179;28;20007;-65
2023/06/14 01:34:17;;;;;;;;;;;;;;;16.84;56.27;101341.44;4186818;28;20027;-64
2023/06/14 01:36:20;;;;;;;;;;;;;;;16.79;56.26;101342.03;4187504;28;20023;-64
2023/06/14 01:38:22;;;;;;;;;;;;;;;16.78;56.23;101340.34;4203192;28;20030;-64
2023/06/14 01:40:26;;;;;;;;;;;;;;;16.75;56.80;101343.50;4219378;28;20042;-63
2023/06/14 01:42:29;;;;;;;;;;;;;;;16.77;56.52;101341.41;4120865;28;1884795;-63
2023/06/14 01:44:31;;;;;;;;;;;;;;;16.73;56.57;101345.59;4188311;28;20019;-63
2023/06/14 01:46:37;;;;;;;;;;;;;;;16.67;56.72;101347.22;4187154;28;20494;-62
2023/06/14 01:48:38;;;;;;;;;;;;;;;16.66;56.87;101344.69;4188952;28;20019;-62
2023/06/14 01:50:40;;;;;;;;;;;;;;;16.66;57.06;101345.56;4186841;28;21856;-63
2023/06/14 01:52:42;;;;;;;;;;;;;;;16.64;57.28;101346.81;4187645;28;20016;-64
2023/06/14 01:54:47;;;;;;;;;;;;;;;16.62;57.25;101347.00;4188800;28;20032;-63
2023/06/14 01:56:50;;;;;;;;;;;;;;;16.58;57.60;101349.31;4187464;28;20011;-64
2023/06/14 01:58:53;;;;;;;;;;;;;;;16.48;57.70;101346.09;4202760;28;20019;-64
2023/06/14 02:00:56;;;;;;;;;;;;;;;16.38;57.75;101351.91;4181320;28;20914;-64
2023/06/14 02:02:58;;;;;;;;;;;;;;;16.35;58.39;101360.50;4219282;28;20023;-64
2023/06/14 02:05:02;;;;;;;;;;;;;;;16.34;58.16;101355.25;4185519;28;20072;-64
2023/06/14 02:07:04;;;;;;;;;;;;;;;16.34;58.42;101357.97;4186834;28;20020;-64
2023/06/14 02:09:06;;;;;;;;;;;;;;;16.35;58.50;101356.94;4201772;28;20611;-62
2023/06/14 02:11:08;;;;;;;;;;;;;;;16.40;58.44;101368.06;4186768;28;20039;-64
2023/06/14 02:13:12;;;;;;;;;;;;;;;16.36;58.26;101366.78;4183119;28;20870;-63
2023/06/14 02:15:17;;;;;;;;;;;;;;;16.37;58.53;101358.41;4201683;28;20528;-64
2023/06/14 02:17:20;;;;;;;;;;;;;;;16.35;58.80;101362.38;4184626;28;19936;-65
2023/06/14 02:19:22;;;;;;;;;;;;;;;16.38;58.50;101361.97;4202179;28;20003;-63
2023/06/14 02:21:24;;;;;;;;;;;;;;;16.33;58.63;101362.59;4219243;28;20018;-63
2023/06/14 02:23:26;;;;;;;;;;;;;;;16.26;58.61;101360.84;4187157;28;20011;-64
2023/06/14 02:25:28;;;;;;;;;;;;;;;16.22;58.79;101357.66;4184848;28;20011;-63
2023/06/14 02:27:30;;;;;;;;;;;;;;;16.22;58.90;101360.38;4219438;27;20014;-63
2023/06/14 02:29:33;;;;;;;;;;;;;;;16.19;58.88;101366.25;4186831;28;20793;-63
2023/06/14 02:31:39;;;;;;;;;;;;;;;16.16;59.21;101358.47;4185320;28;20035;-64
2023/06/14 02:33:41;;;;;;;;;;;;;;;16.16;59.65;101367.50;4186337;28;20020;-64
2023/06/14 02:35:43;;;;;;;;;;;;;;;16.20;59.18;101365.19;4186747;28;20444;-64
2023/06/14 02:37:46;;;;;;;;;;;;;;;16.18;59.64;101361.84;4201927;28;19930;-62
2023/06/14 02:39:49;;;;;;;;;;;;;;;16.16;59.39;101361.19;4184888;28;20139;-63
2023/06/14 02:41:50;;;;;;;;;;;;;;;16.10;59.59;101364.72;4186818;28;20328;-63
2023/06/14 02:43:52;;;;;;;;;;;;;;;16.04;59.88;101359.00;4186410;28;20024;-63
2023/06/14 02:45:56;;;;;;;;;;;;;;;16.01;59.96;101370.31;4185795;28;20023;-63
2023/06/14 02:47:58;;;;;;;;;;;;;;;16.01;59.97;101373.03;4185309;28;19975;-64
2023/06/14 02:50:00;;;;;;;;;;;;;;;16.03;60.01;101373.69;4186799;28;20015;-63
2023/06/14 02:52:02;;;;;;;;;;;;;;;16.08;60.09;101370.38;4218708;28;20018;-64
2023/06/14 02:54:04;;;;;;;;;;;;;;;16.13;59.75;101375.22;4181120;28;20022;-64
2023/06/14 02:56:06;;;;;;;;;;;;;;;16.18;59.75;101364.56;4218503;28;20019;-62
2023/06/14 02:58:08;;;;;;;;;;;;;;;16.14;59.72;101368.72;4186444;28;20454;-60
2023/06/14 03:00:12;;;;;;;;;;;;;;;16.13;59.63;101369.78;4218338;28;20027;-62
2023/06/14 03:02:18;;;;;;;;;;;;;;;16.13;60.13;101367.91;4184912;28;20584;-63
2023/06/14 03:04:21;;;;;;;;;;;;;;;16.08;60.33;101364.94;4183403;28;20019;-64
2023/06/14 03:06:24;;;;;;;;;;;;;;;16.07;60.43;101365.97;4201550;28;20019;-64
2023/06/14 03:08:28;;;;;;;;;;;;;;;16.02;60.48;101363.00;4187472;28;20015;-63
2023/06/14 03:10:32;;;;;;;;;;;;;;;15.99;60.81;101355.22;4201985;28;20305;-64
2023/06/14 03:12:35;;;;;;;;;;;;;;;15.97;60.69;101360.88;4184972;28;20024;-62
2023/06/14 03:14:38;;;;;;;;;;;;;;;16.00;60.84;101356.88;4185493;28;20019;-64
2023/06/14 03:16:41;;;;;;;;;;;;;;;15.99;60.53;101355.22;4186031;28;20031;-64
2023/06/14 03:18:49;;;;;;;;;;;;;;;15.98;60.83;101358.97;4185073;28;20031;-63
2023/06/14 03:20:52;;;;;;;;;;;;;;;15.96;60.78;101370.06;4186637;28;20080;-62
2023/06/14 03:22:54;;;;;;;;;;;;;;;15.91;61.02;101360.78;4186158;28;20023;-64
2023/06/14 03:24:59;;;;;;;;;;;;;;;15.93;60.91;101366.91;4183021;28;20054;-63
2023/06/14 03:27:01;;;;;;;;;;;;;;;15.91;61.30;101355.34;4218357;28;20006;-64
2023/06/14 03:29:05;;;;;;;;;;;;;;;15.96;61.24;101366.50;4184590;28;20039;-64
2023/06/14 03:31:08;;;;;;;;;;;;;;;15.96;61.06;101370.06;4186673;28;20039;-64
2023/06/14 03:33:11;;;;;;;;;;;;;;;15.92;61.22;101376.09;4168795;28;20024;-64
2023/06/14 03:35:17;;;;;;;;;;;;;;;15.92;61.05;101373.38;4201558;28;19967;-63
2023/06/14 03:37:20;;;;;;;;;;;;;;;15.90;61.25;101370.03;4184589;28;20015;-63
2023/06/14 03:39:23;;;;;;;;;;;;;;;15.87;61.34;101376.69;4218788;28;19924;-64
2023/06/14 03:41:28;;;;;;;;;;;;;;;15.84;61.66;101383.38;4186147;28;20011;-62
2023/06/14 03:43:31;;;;;;;;;;;;;;;15.82;61.83;101380.00;4201666;28;20023;-65
2023/06/14 03:45:33;;;;;;;;;;;;;;;15.81;61.72;101378.31;4217666;28;20015;-65
2023/06/14 03:47:36;;;;;;;;;;;;;;;15.75;61.80;101381.81;4185721;28;20027;-65
2023/06/14 03:49:38;;;;;;;;;;;;;;;15.67;62.30;101380.06;4185858;28;20375;-65
2023/06/14 03:51:41;;;;;;;;;;;;;;;15.63;62.41;101378.75;4219539;28;20023;-63
2023/06/14 03:53:43;;;;;;;;;;;;;;;15.61;62.65;101385.41;4179241;28;20467;-64
2023/06/14 03:55:45;;;;;;;;;;;;;;;15.63;62.50;101386.09;4186629;28;20043;-63
2023/06/14 03:57:48;;;;;;;;;;;;;;;15.64;62.66;101387.75;4202189;28;20469;-64
2023/06/14 03:59:53;;;;;;;;;;;;;;;15.65;62.65;101382.13;4169363;28;20429;-65
2023/06/14 04:01:56;;;;;;;;;;;;;;;15.64;62.99;101383.19;4202154;28;20023;-65
2023/06/14 04:03:58;;;;;;;;;;;;;;;15.64;62.72;101385.91;4185231;28;20027;-65
2023/06/14 04:06:02;;;;;;;;;;;;;;;15.62;63.05;101385.22;4200949;28;20107;-65
2023/06/14 04:08:08;;;;;;;;;;;;;;;15.63;63.24;101394.25;4185734;28;20019;-65
2023/06/14 04:10:11;;;;;;;;;;;;;;;15.65;63.14;101394.91;4185061;28;20417;-63
2023/06/14 04:12:14;;;;;;;;;;;;;;;15.69;63.27;101398.94;4187168;28;20012;-63
2023/06/14 04:14:16;;;;;;;;;;;;;;;15.74;63.04;101391.00;4185261;28;20443;-63
2023/06/14 04:16:18;;;;;;;;;;;;;;;15.80;63.26;101400.31;4201311;28;20047;-63
2023/06/14 04:18:20;;;;;;;;;;;;;;;15.88;63.39;101402.91;4218340;28;20019;-64
2023/06/14 04:20:25;;;;;;;;;;;;;;;15.97;63.10;101400.88;4185480;28;20015;-63
2023/06/14 04:22:28;;;;;;;;;;;;;;;16.01;63.09;101392.09;4186628;28;20023;-63
2023/06/14 04:24:34;;;;;;;;;;;;;;;16.05;63.07;101395.28;4184248;28;20024;-63
2023/06/14 04:26:37;;;;;;;;;;;;;;;16.06;62.85;101390.69;4200382;28;20031;-62
2023/06/14 04:28:40;;;;;;;;;;;;;;;16.05;63.11;101392.56;4183047;28;20365;-63
2023/06/14 04:30:44;;;;;;;;;;;;;;;16.06;62.71;101396.97;4199295;28;20512;-63
2023/06/14 04:32:47;;;;;;;;;;;;;;;16.09;62.77;101393.00;4184540;28;20019;-63
2023/06/14 04:34:53;;;;;;;;;;;;;;;16.10;63.16;101398.25;4188297;28;20019;-63
2023/06/14 04:36:55;;;;;;;;;;;;;;;16.16;63.15;101391.16;4188016;28;20019;-62
2023/06/14 04:39:03;;;;;;;;;;;;;;;16.21;62.64;101394.97;4187760;28;20023;-63
2023/06/14 04:41:11;;;;;;;;;;;;;;;16.27;62.86;101389.78;4220561;28;20014;-63
2023/06/14 04:43:17;;;;;;;;;;;;;;;16.28;62.41;101394.19;4187284;28;20011;-63
2023/06/14 04:45:21;;;;;;;;;;;;;;;16.34;62.38;101396.13;4220312;28;20031;-63
2023/06/14 04:47:24;;;;;;;;;;;;;;;16.37;62.55;101410.19;4187622;28;20023;-62
2023/06/14 04:49:27;;;;;;;;;;;;;;;16.44;62.70;101406.66;4187119;28;20019;-63
2023/06/14 04:51:30;;;;;;;;;;;;;;;16.48;62.60;101403.34;4220785;28;20018;-63
2023/06/14 04:53:33;;;;;;;;;;;;;;;16.54;62.29;101402.53;4187145;28;20019;-64
2023/06/14 04:55:37;;;;;;;;;;;;;;;16.58;61.87;101405.69;4186631;28;20019;-63
2023/06/14 04:57:41;;;;;;;;;;;;;;;16.61;61.62;101401.75;4220615;27;20023;-63
2023/06/14 04:59:45;;;;;;;;;;;;;;;16.65;61.54;101400.31;4170056;28;20694;-64
2023/06/14 05:01:48;;;;;;;;;;;;;;;16.69;61.33;101409.75;4169415;28;20027;-65
2023/06/14 05:03:51;;;;;;;;;;;;;;;16.67;61.48;101404.50;4217784;28;20022;-63
2023/06/14 05:05:53;;;;;;;;;;;;;;;16.69;61.54;101404.28;4185955;28;20024;-62
2023/06/14 05:07:56;;;;;;;;;;;;;;;16.72;61.04;101402.03;4186445;28;20016;-65
2023/06/14 05:09:58;;;;;;;;;;;;;;;16.74;61.04;101402.66;4170221;28;20016;-64
2023/06/14 05:12:00;;;;;;;;;;;;;;;16.76;60.95;101400.56;4203147;28;20015;-63
2023/06/14 05:14:04;;;;;;;;;;;;;;;16.80;60.91;101408.34;4185750;28;20020;-62
2023/06/14 05:16:06;;;;;;;;;;;;;;;16.81;61.21;101407.31;4186643;28;19925;-63
2023/06/14 05:18:09;;;;;;;;;;;;;;;16.83;60.98;101408.78;4187832;28;19996;-64
2023/06/14 05:20:12;;;;;;;;;;;;;;;16.87;61.03;101404.63;4186571;28;20373;-63
2023/06/14 05:22:14;;;;;;;;;;;;;;;16.96;60.47;101405.31;4187660;28;20020;-64
2023/06/14 05:24:18;;;;;;;;;;;;;;;17.00;60.55;101405.75;4187255;28;20849;-65
2023/06/14 05:26:20;;;;;;;;;;;;;;;17.04;60.14;101410.59;4188312;28;20031;-65
2023/06/14 05:28:22;;;;;;;;;;;;;;;17.02;60.33;101412.69;4183202;28;20032;-64
2023/06/14 05:30:26;;;;;;;;;;;;;;;17.06;60.18;101418.59;4186479;28;20035;-65
2023/06/14 05:32:27;;;;;;;;;;;;;;;17.12;60.42;101417.78;4182313;28;20396;-64
2023/06/14 05:34:29;;;;;;;;;;;;;;;17.19;60.12;101421.34;4181697;28;20028;-65
2023/06/14 05:36:31;;;;;;;;;;;;;;;17.26;59.97;101426.84;4186387;28;20019;-63
2023/06/14 05:38:33;;;;;;;;;;;;;;;17.30;60.01;101433.56;4185588;28;20027;-63
2023/06/14 05:40:37;;;;;;;;;;;;;;;17.32;60.02;101431.50;4172085;28;20024;-63
2023/06/14 05:42:39;;;;;;;;;;;;;;;17.34;59.78;101429.41;4183692;28;20040;-62
2023/06/14 05:44:41;;;;;;;;;;;;;;;17.37;59.64;101420.78;4186789;28;20015;-64
2023/06/14 05:46:44;;;;;;;;;;;;;;;17.36;59.50;101432.75;4186220;28;20024;-64
2023/06/14 05:48:46;;;;;;;;;;;;;;;17.37;59.54;101431.72;4185883;28;20016;-63
2023/06/14 05:50:48;;;;;;;;;;;;;;;17.39;59.75;101426.03;4184976;28;20019;-63
2023/06/14 05:52:51;;;;;;;;;;;;;;;17.42;59.90;101426.47;4186681;28;20015;-63
2023/06/14 05:54:53;;;;;;;;;;;;;;;17.44;59.81;101429.00;4187103;28;20011;-63
2023/06/14 05:56:55;;;;;;;;;;;;;;;17.45;59.70;101434.25;4186579;28;20034;-63
2023/06/14 05:58:57;;;;;;;;;;;;;;;17.45;59.42;101436.97;4185809;28;20655;-64
2023/06/14 06:00:59;;;;;;;;;;;;;;;17.46;59.48;101432.34;4187061;28;20027;-64
2023/06/14 06:03:03;;;;;;;;;;;;;;;17.46;59.14;101435.09;4214263;28;20024;-64
2023/06/14 06:05:08;;;;;;;;;;;;;;;17.44;59.36;101426.25;4186261;28;20051;-64
2023/06/14 06:07:10;;;;;;;;;;;;;;;17.45;59.41;101430.69;4185827;28;20019;-64
2023/06/14 06:09:14;;;;;;;;;;;;;;;17.46;58.93;101444.13;4185308;28;20736;-65
2023/06/14 06:11:16;;;;;;;;;;;;;;;17.50;59.11;101441.00;4180996;28;20040;-63
2023/06/14 06:13:19;;;;;;;;;;;;;;;17.50;59.21;101441.00;4182340;28;20451;-62
2023/06/14 06:15:21;;;;;;;;;;;;;;;17.46;59.16;101438.69;4184987;28;20027;-64
2023/06/14 06:17:23;;;;;;;;;;;;;;;17.48;59.24;101446.66;4185874;28;20798;-64
2023/06/14 06:19:26;;;;;;;;;;;;;;;17.50;59.02;101444.56;4185271;28;20007;-64
2023/06/14 06:21:28;;;;;;;;;;;;;;;17.48;59.18;101442.03;4185751;28;20514;-62
2023/06/14 06:23:30;;;;;;;;;;;;;;;17.46;59.18;101433.22;4185728;28;20019;-63
2023/06/14 06:25:32;;;;;;;;;;;;;;;17.45;59.44;101436.97;4186522;28;20442;-63
2023/06/14 06:27:35;;;;;;;;;;;;;;;17.48;59.50;101443.94;4185945;28;20016;-63
2023/06/14 06:29:37;;;;;;;;;;;;;;;17.48;59.46;101435.75;4153101;28;20004;-65
2023/06/14 06:31:39;;;;;;;;;;;;;;;17.49;59.48;101440.13;4186270;28;20031;-65
2023/06/14 06:33:41;;;;;;;;;;;;;;;17.51;59.47;101438.06;4186785;28;20035;-65
2023/06/14 06:35:45;;;;;;;;;;;;;;;17.55;59.40;101439.31;4186083;28;20008;-64
2023/06/14 06:37:47;;;;;;;;;;;;;;;17.56;59.47;101431.97;4186945;28;20441;-64
2023/06/14 06:39:49;;;;;;;;;;;;;;;17.56;59.38;101437.44;4185720;28;20023;-63
2023/06/14 06:41:51;;;;;;;;;;;;;;;17.59;58.83;101443.31;4186706;28;20023;-64
2023/06/14 06:44:03;;;;;;;;;;;;;;;17.64;59.03;101443.53;4185923;28;20473;-65
2023/06/14 06:46:05;;;;;;;;;;;;;;;17.63;58.79;101447.34;4218993;28;20425;-65
2023/06/14 06:48:07;;;;;;;;;;;;;;;17.62;59.16;101451.09;4186432;28;20407;-65
2023/06/14 06:50:09;;;;;;;;;;;;;;;17.64;59.15;101446.25;4185655;28;20019;-65
2023/06/14 06:52:13;;;;;;;;;;;;;;;17.67;59.04;101452.38;4186463;28;19956;-65
2023/06/14 06:54:15;;;;;;;;;;;;;;;17.71;59.04;101445.44;4218205;28;19977;-64
2023/06/14 06:56:17;;;;;;;;;;;;;;;17.76;58.81;101451.16;4166242;28;20020;-65
2023/06/14 06:58:21;;;;;;;;;;;;;;;17.82;58.94;101455.75;4168739;28;19932;-64
2023/06/14 07:00:23;;;;;;;;;;;;;;;17.87;58.48;101453.25;4184402;28;19928;-65
2023/06/14 07:02:25;;;;;;;;;;;;;;;17.91;58.32;101443.59;4186008;28;20020;-65
2023/06/14 07:04:27;;;;;;;;;;;;;;;17.93;58.19;101444.25;4185777;28;20027;-63
2023/06/14 07:06:30;;;;;;;;;;;;;;;17.97;58.37;101448.25;4184334;28;20407;-63
2023/06/14 07:08:33;;;;;;;;;;;;;;;18.02;58.38;101453.06;4186554;28;20304;-64
2023/06/14 07:10:37;;;;;;;;;;;;;;;18.05;58.54;101451.84;4185725;28;20015;-65
2023/06/14 07:12:39;;;;;;;;;;;;;;;18.08;58.62;101460.44;4185796;28;20018;-65
2023/06/14 07:14:41;;;;;;;;;;;;;;;18.13;58.39;101460.66;4186116;28;20557;-64
2023/06/14 07:16:43;;;;;;;;;;;;;;;18.16;58.30;101460.22;4186126;28;20363;-64
2023/06/14 07:18:45;;;;;;;;;;;;;;;18.21;58.12;101465.06;4186098;28;19968;-64
2023/06/14 07:20:48;;;;;;;;;;;;;;;18.27;58.15;101466.13;4186426;28;20003;-64
2023/06/14 07:22:50;;;;;;;;;;;;;;;18.31;57.90;101472.88;4185143;28;20440;-63
2023/06/14 07:24:53;;;;;;;;;;;;;;;18.36;57.52;101478.53;4185807;28;20028;-64
2023/06/14 07:26:56;;;;;;;;;;;;;;;18.36;57.25;101467.59;4185890;28;20373;-64
2023/06/14 07:29:00;;;;;;;;;;;;;;;18.41;57.36;101472.44;4185904;28;20015;-65
2023/06/14 07:31:03;;;;;;;;;;;;;;;18.47;57.38;101482.53;4186678;28;20103;-64
2023/06/14 07:33:05;;;;;;;;;;;;;;;18.48;57.13;101476.84;4185688;28;20012;-65
2023/06/14 07:35:08;;;;;;;;;;;;;;;18.49;57.08;101475.78;4188424;28;20019;-62
2023/06/14 07:37:10;;;;;;;;;;;;;;;18.48;57.02;101468.66;4185280;28;20023;-63
2023/06/14 07:39:12;;;;;;;;;;;;;;;18.51;56.95;101476.44;4185746;28;20390;-65
2023/06/14 07:41:15;;;;;;;;;;;;;;;18.55;56.87;101479.56;4185310;28;20028;-63
2023/06/14 07:43:18;;;;;;;;;;;;;;;18.56;56.74;101478.53;4182655;28;20015;-65
2023/06/14 07:45:20;;;;;;;;;;;;;;;18.55;56.88;101469.47;4183571;28;20012;-65
2023/06/14 07:47:22;;;;;;;;;;;;;;;18.62;56.67;101474.09;4185625;28;20023;-64
2023/06/14 07:49:24;;;;;;;;;;;;;;;18.65;56.87;101477.25;4185524;28;20019;-65
2023/06/14 07:51:26;;;;;;;;;;;;;;;18.68;56.50;101473.25;4186292;28;20023;-65
2023/06/14 07:53:28;;;;;;;;;;;;;;;18.69;56.45;101473.03;4184250;28;19925;-63
2023/06/14 07:55:32;;;;;;;;;;;;;;;18.72;56.45;101466.31;4185985;28;20021;-65
2023/06/14 07:57:35;;;;;;;;;;;;;;;18.73;56.45;101466.09;4186376;28;20020;-64
2023/06/14 07:59:37;;;;;;;;;;;;;;;18.73;55.99;101471.56;4183580;28;19932;-64
2023/06/14 08:01:46;;;;;;;;;;;;;;;18.75;55.88;101465.88;4185397;28;20090;-64
2023/06/14 08:03:48;;;;;;;;;;;;;;;18.78;56.04;101459.13;4185847;28;20039;-64
2023/06/14 08:05:51;;;;;;;;;;;;;;;18.80;56.05;101465.22;4186029;28;20011;-65
2023/06/14 08:07:53;;;;;;;;;;;;;;;18.83;56.19;101459.34;4183618;28;20007;-64
2023/06/14 08:09:55;;;;;;;;;;;;;;;18.85;55.82;101457.25;4188536;28;20368;-63
2023/06/14 08:11:57;;;;;;;;;;;;;;;18.86;55.91;101465.25;4188883;28;20024;-63
2023/06/14 08:14:00;;;;;;;;;;;;;;;18.88;55.86;101473.25;4185328;28;20008;-64
2023/06/14 08:16:04;;;;;;;;;;;;;;;18.88;55.86;101459.56;4188084;28;20027;-63
2023/06/14 08:18:06;;;;;;;;;;;;;;;18.90;55.77;101460.16;4188696;28;20072;-64
2023/06/14 08:20:09;;;;;;;;;;;;;;;18.92;55.19;101458.06;4187953;28;20445;-64
2023/06/14 08:22:12;;;;;;;;;;;;;;;18.95;55.09;101467.75;4189647;28;20011;-64
2023/06/14 08:24:14;;;;;;;;;;;;;;;18.98;55.25;101468.16;4188046;28;20020;-63
2023/06/14 08:26:16;;;;;;;;;;;;;;;19.01;55.46;101455.94;4189434;28;20012;-64
2023/06/14 08:28:18;;;;;;;;;;;;;;;19.03;55.46;101462.06;4189564;28;20027;-64
2023/06/14 08:30:21;;;;;;;;;;;;;;;19.03;55.45;101448.38;4188034;28;20023;-64
2023/06/14 08:32:23;;;;;;;;;;;;;;;19.04;55.06;101459.09;4188426;28;20458;-64
2023/06/14 08:34:26;;;;;;;;;;;;;;;19.04;55.04;101455.50;4188431;28;20023;-64
2023/06/14 08:36:28;;;;;;;;;;;;;;;19.05;55.02;101452.53;4188745;28;20026;-64
2023/06/14 08:38:29;;;;;;;;;;;;;;;19.06;55.07;101453.41;4188706;28;20120;-64
2023/06/14 08:40:32;;;;;;;;;;;;;;;19.08;54.52;101457.59;4187422;28;19971;-64
2023/06/14 08:42:33;;;;;;;;;;;;;;;19.11;54.89;101456.31;4187930;28;20059;-64
2023/06/14 08:44:36;;;;;;;;;;;;;;;19.14;55.09;101460.50;4188273;28;20023;-64
2023/06/14 08:46:39;;;;;;;;;;;;;;;19.15;55.02;101465.78;4171551;28;20366;-63
2023/06/14 08:48:43;;;;;;;;;;;;;;;19.18;54.57;101479.03;4187338;28;20019;-64
2023/06/14 08:50:45;;;;;;;;;;;;;;;19.20;54.00;101473.34;4187191;28;19959;-64
2023/06/14 08:52:52;;;;;;;;;;;;;;;19.23;53.79;101472.91;4187870;28;20040;-64
2023/06/14 08:54:55;;;;;;;;;;;;;;;19.25;53.63;101470.81;4187958;28;20031;-63
2023/06/14 08:56:58;;;;;;;;;;;;;;;19.27;53.62;101474.16;4171959;28;20023;-63
2023/06/14 08:59:02;;;;;;;;;;;;;;;19.28;53.49;101467.63;4187576;28;20032;-63
2023/06/14 09:01:04;;;;;;;;;;;;;;;19.30;53.65;101462.78;4188330;28;19929;-63
2023/06/14 09:03:13;;;;;;;;;;;;;;;19.31;53.55;101467.19;4187663;28;20036;-64
2023/06/14 09:05:18;;;;;;;;;;;;;;;19.32;53.68;101460.66;4187096;28;20011;-64
2023/06/14 09:07:20;;;;;;;;;;;;;;;19.34;53.32;101472.25;4187967;28;20088;-64
2023/06/14 09:09:24;;;;;;;;;;;;;;;19.35;53.57;101465.69;4188051;28;20019;-63
2023/06/14 09:11:27;;;;;;;;;;;;;;;19.37;53.43;101469.06;4187878;28;20008;-64
2023/06/14 09:13:30;;;;;;;;;;;;;;;19.40;52.59;101473.25;4187676;28;20020;-64
2023/06/14 09:15:32;;;;;;;;;;;;;;;19.42;52.29;101468.41;4186459;28;20012;-64
2023/06/14 09:17:35;;;;;;;;;;;;;;;19.44;52.60;101466.28;4188305;28;20408;-64
2023/06/14 09:19:38;;;;;;;;;;;;;;;19.46;52.52;101466.91;4187127;28;20857;-63
2023/06/14 09:21:41;;;;;;;;;;;;;;;19.48;52.86;101473.00;4188147;28;19935;-64
2023/06/14 09:23:44;;;;;;;;;;;;;;;19.51;52.81;101471.72;4187331;28;20023;-64
2023/06/14 09:25:46;;;;;;;;;;;;;;;19.52;52.66;101471.50;4187407;28;20020;-64
2023/06/14 09:27:48;;;;;;;;;;;;;;;19.55;52.50;101478.47;4187882;28;20023;-65
2023/06/14 09:29:51;;;;;;;;;;;;;;;19.58;52.25;101478.03;4186748;28;20024;-64
2023/06/14 09:31:54;;;;;;;;;;;;;;;19.60;52.40;101475.91;4187935;28;20028;-64
2023/06/14 09:33:56;;;;;;;;;;;;;;;19.62;52.37;101476.50;4186746;28;20498;-65
2023/06/14 09:36:00;;;;;;;;;;;;;;;19.65;52.21;101467.03;4188112;28;20019;-65
2023/06/14 09:38:02;;;;;;;;;;;;;;;19.68;52.06;101470.16;4188079;28;20375;-64
2023/06/14 09:40:04;;;;;;;;;;;;;;;19.72;52.25;101473.31;4186969;28;20036;-64
2023/06/14 09:42:08;;;;;;;;;;;;;;;19.75;52.13;101470.13;4186083;28;20015;-64
2023/06/14 09:44:10;;;;;;;;;;;;;;;19.77;52.29;101471.59;4219842;28;20022;-64
2023/06/14 09:46:12;;;;;;;;;;;;;;;19.82;51.84;101470.13;4187961;28;20373;-64
2023/06/14 09:48:19;;;;;;;;;;;;;;;19.83;51.49;101466.28;4186856;28;20018;-65
2023/06/14 09:50:21;;;;;;;;;;;;;;;19.85;51.63;101467.75;4186306;28;20023;-63
2023/06/14 09:52:26;;;;;;;;;;;;;;;19.87;51.87;101468.38;4187454;28;20413;-64
2023/06/14 09:54:28;;;;;;;;;;;;;;;19.89;51.54;101473.63;4186911;28;20023;-63
2023/06/14 09:56:33;;;;;;;;;;;;;;;19.90;51.11;101469.84;4187766;28;20015;-64
2023/06/14 09:58:35;;;;;;;;;;;;;;;19.92;51.55;101464.97;4187495;28;20019;-65
2023/06/14 10:00:38;;;;;;;;;;;;;;;19.94;51.19;101466.44;4187149;28;20328;-65
2023/06/14 10:02:42;;;;;;;;;;;;;;;19.94;51.19;101466.44;4187306;28;19986;-63
2023/06/14 10:04:46;;;;;;;;;;;;;;;19.96;51.63;101466.22;4185877;28;20019;-65
2023/06/14 10:06:48;;;;;;;;;;;;;;;19.97;51.17;101468.75;4186785;28;20011;-64
2023/06/14 10:08:51;;;;;;;;;;;;;;;19.99;50.91;101466.59;4186434;28;20020;-65
2023/06/14 10:10:54;;;;;;;;;;;;;;;20.01;50.70;101463.63;4187213;28;20027;-65
2023/06/14 10:12:56;;;;;;;;;;;;;;;20.02;50.36;101462.59;4186425;28;20020;-65
2023/06/14 10:14:58;;;;;;;;;;;;;;;20.03;50.15;101463.41;4186601;28;20031;-64
2023/06/14 10:17:01;;;;;;;;;;;;;;;20.05;50.16;101469.53;4187452;28;20031;-64
2023/06/14 10:19:04;;;;;;;;;;;;;;;20.06;49.94;101468.47;4186634;28;20027;-63
2023/06/14 10:21:08;;;;;;;;;;;;;;;20.08;50.05;101460.88;4187010;28;20020;-64
2023/06/14 10:23:11;;;;;;;;;;;;;;;20.11;49.90;101455.78;4186869;28;19956;-64
2023/06/14 10:25:15;;;;;;;;;;;;;;;20.13;49.85;101456.38;4185561;28;20011;-64
2023/06/14 10:27:18;;;;;;;;;;;;;;;20.15;49.63;101456.16;4170263;28;20040;-63
2023/06/14 10:29:22;;;;;;;;;;;;;;;20.16;49.57;101452.34;4186582;28;20023;-66
2023/06/14 10:31:25;;;;;;;;;;;;;;;20.20;49.34;101447.25;4186343;28;20015;-66